• Join FlightAware (Why Join?)
  • Login
  • US Flag 
04:52AM EDT


 

Airport Tracker/Info


-or-


 

Live Flight TrackerFlight Track Log ✈ TAM3195 ✈ 19-Jul-2013 ✈ SBVT / VIX - SBRJ / SDU

Flight Track Log - Related Links

Times and Time Zones

All times are in EDT time to prevent confusion due to time zone crossing. See the TAM3195 flight status page for this flight to view local times or setup timezone preferences in your user account.

Time Position Orientation Groundspeed Altitude Reporting Facility
EDT Latitude Longitude Course Direction KTS MPH feet Rate Location/Type
01:17PM -21.2676 -41.3628 225° Southwest  Level Estimated
01:18PM -21.3268 -41.4265 225° Southwest  Level Estimated
01:19PM -21.3859 -41.4903 225° Southwest  Level Estimated
01:20PM -21.4451 -41.5542 225° Southwest  Level Estimated
01:21PM -21.5042 -41.6181 225° Southwest  Level Estimated
01:22PM -21.5632 -41.6821 225° Southwest  Level Estimated
01:23PM -21.6223 -41.7461 225° Southwest  Level Estimated
01:24PM -21.6813 -41.8102 225° Southwest  Level Estimated
01:25PM -21.7403 -41.8744 225° Southwest  Level Estimated
01:26PM -21.7993 -41.9385 225° Southwest  Level Estimated
01:27PM -21.8582 -42.0028 225° Southwest  Level Estimated
01:28PM -21.9172 -42.0671 225° Southwest  Level Estimated
01:29PM -21.9761 -42.1314 225° Southwest  Level Estimated
01:30PM -22.0350 -42.1958 225° Southwest  Level Estimated
01:31PM -22.0938 -42.2603 225° Southwest  Level Estimated
01:32PM -22.1526 -42.3247 225° Southwest  Level Estimated
01:33PM -22.2114 -42.3893 225° Southwest  Level Estimated
01:34PM -22.2702 -42.4539 225° Southwest  Level Estimated
01:35PM -22.3290 -42.5186 226° Southwest  Level Estimated
01:36PM -22.3877 -42.5833 226° Southwest  Level Estimated
01:37PM -22.4464 -42.6481 226° Southwest  Level Estimated
01:38PM -22.5051 -42.7129 226° Southwest  Level Estimated
01:39PM -22.5637 -42.7778 226° Southwest  Level Estimated
01:40PM -22.6224 -42.8428 226° Southwest  Level Estimated
01:41PM -22.6810 -42.9077 226° Southwest  Level Estimated
01:42PM -22.7395 -42.9728 226° Southwest  Level Estimated
01:43PM -22.7981 -43.0379 226° Southwest  Level Estimated
01:44PM -22.8566 -43.1031 226° Southwest  Level Estimated
01:45PM -22.9105 -43.1631 226° Southwest  Level Estimated
01:46PM -22.9105 -43.1631 250° West  Level Estimated
01:47PM -22.9105 -43.1631 250° West  Level Estimated
01:48PM -22.9105 -43.1631 250° West  Level Estimated
01:49PM -22.9105 -43.1631 250° West  Level Estimated
01:50PM -22.9105 -43.1631 250° West  Level Estimated
01:51PM -22.9105 -43.1631 250° West  Level Estimated
01:52PM -22.9105 -43.1631 250° West  Level Estimated
01:53PM -22.9105 -43.1631 250° West  Level Estimated
01:54PM -22.9105 -43.1631 250° West  Level Estimated
01:55PM -22.9105 -43.1631 250° West  Level Estimated
01:56PM -22.9105 -43.1631 250° West  Level Estimated
01:57PM -22.9105 -43.1631 250° West  Level Estimated
01:58PM -22.9105 -43.1631 250° West  Level Estimated
01:59PM -22.9105 -43.1631 250° West  Level Estimated
02:00PM -22.9105 -43.1631 250° West  Level Estimated
02:01PM -22.9105 -43.1631 250° West  Level Estimated